createdAt,value
2022-12-17T00:00:39.132Z,-0.36
2022-12-17T00:01:40.218Z,-0.39
2022-12-17T00:02:41.146Z,-0.33
2022-12-17T00:03:43.568Z,-0.42
2022-12-17T00:04:42.382Z,-0.41
2022-12-17T00:05:42.539Z,-0.36
2022-12-17T00:06:43.618Z,-0.44
2022-12-17T00:07:43.802Z,-0.42
2022-12-17T00:08:44.237Z,-0.48
2022-12-17T00:09:50.745Z,-0.46
2022-12-17T00:10:45.131Z,-0.53
2022-12-17T00:11:45.855Z,-0.53
2022-12-17T00:12:46.314Z,-0.51
2022-12-17T00:13:47.356Z,-0.54
2022-12-17T00:14:47.262Z,-0.49
2022-12-17T00:15:47.456Z,-0.54
2022-12-17T00:16:48.646Z,-0.53
2022-12-17T00:17:48.566Z,-0.49
2022-12-17T00:18:49.483Z,-0.53
2022-12-17T00:19:52.359Z,-0.48
2022-12-17T00:20:52.423Z,-0.46
2022-12-17T00:21:52.056Z,-0.49
2022-12-17T00:22:53.603Z,-0.45
2022-12-17T00:23:56.986Z,-0.51
2022-12-17T00:24:56.739Z,-0.48
2022-12-17T00:25:53.463Z,-0.42
2022-12-17T00:26:54.252Z,-0.45
2022-12-17T00:27:54.495Z,-0.35
2022-12-17T00:28:56.170Z,-0.31
2022-12-17T00:29:56.080Z,-0.24
2022-12-17T00:30:57.842Z,-0.21
2022-12-17T00:31:58.106Z,-0.18
2022-12-17T00:32:59.755Z,-0.26
2022-12-17T00:33:59.944Z,-0.21
2022-12-17T00:34:59.852Z,-0.28
2022-12-17T00:36:01.866Z,-0.17
2022-12-17T00:37:01.499Z,-0.2
2022-12-17T00:38:02.384Z,-0.13
2022-12-17T00:39:03.289Z,-0.26
2022-12-17T00:40:05.274Z,-0.26
2022-12-17T00:41:04.214Z,-0.26
2022-12-17T00:42:04.256Z,-0.23
2022-12-17T00:43:04.714Z,-0.13
2022-12-17T00:44:05.601Z,-0.28
2022-12-17T00:45:06.508Z,-0.26
2022-12-17T00:46:07.213Z,-0.18
2022-12-17T00:47:07.772Z,-0.26
2022-12-17T00:48:07.513Z,-0.2
2022-12-17T00:49:07.999Z,-0.15
2022-12-17T00:50:07.638Z,-0.24
2022-12-17T00:51:08.525Z,-0.06
2022-12-17T00:52:08.864Z,-0.18
2022-12-17T00:53:10.564Z,-0.1
2022-12-17T00:54:09.750Z,-0.09
2022-12-17T00:55:10.643Z,-0.18
2022-12-17T00:56:10.689Z,-0.13
2022-12-17T00:57:10.896Z,-0.09
2022-12-17T00:58:11.788Z,-0.07
2022-12-17T00:59:12.401Z,-0.12
2022-12-17T01:00:13.604Z,-0.15
2022-12-17T01:01:14.396Z,-0.26
2022-12-17T01:02:15.408Z,-0.15
2022-12-17T01:03:15.577Z,-0.27
2022-12-17T01:04:16.318Z,-0.09
2022-12-17T01:05:16.230Z,-0.24
2022-12-17T01:06:17.218Z,-0.15
2022-12-17T01:07:17.177Z,-0.09
2022-12-17T01:08:17.662Z,-0.2
2022-12-17T01:09:17.573Z,-0.09
2022-12-17T01:10:18.495Z,-0.03
2022-12-17T01:11:19.124Z,-0.07
2022-12-17T01:12:19.366Z,-0.06
2022-12-17T01:13:20.298Z,-0.06
2022-12-17T01:14:20.502Z,-0.06
2022-12-17T01:15:21.098Z,-0.05
2022-12-17T01:16:22.028Z,0.01
2022-12-17T01:17:22.825Z,0.05
2022-12-17T01:18:22.439Z,0.02
2022-12-17T01:19:23.654Z,0.02
2022-12-17T01:20:24.560Z,0.01
2022-12-17T01:21:25.203Z,0.06
2022-12-17T01:22:25.882Z,0.06
2022-12-17T01:23:25.787Z,0.02
2022-12-17T01:24:26.880Z,0.05
2022-12-17T01:25:27.090Z,0.05
2022-12-17T01:26:27.286Z,0.09
2022-12-17T01:27:27.493Z,0.06
2022-12-17T01:28:28.383Z,0
2022-12-17T01:29:29.566Z,0.11
2022-12-17T01:30:29.750Z,0.02
2022-12-17T01:31:35.604Z,0.05
2022-12-17T01:32:30.407Z,0.08
2022-12-17T01:33:30.314Z,0.06
2022-12-17T01:34:30.475Z,-0.02
2022-12-17T01:35:31.667Z,0.06
2022-12-17T01:36:31.819Z,0.09
2022-12-17T01:37:33.334Z,0.02
2022-12-17T01:38:33.952Z,0
2022-12-17T01:39:34.577Z,0.02
2022-12-17T01:40:35.490Z,0.13
2022-12-17T01:41:35.998Z,0.09
2022-12-17T01:42:36.315Z,0.06
2022-12-17T01:43:38.298Z,0.05
2022-12-17T01:44:38.280Z,0.11
2022-12-17T01:45:39.004Z,0.08
2022-12-17T01:46:39.771Z,0.08
2022-12-17T01:47:40.702Z,0
2022-12-17T01:48:41.615Z,0.02
2022-12-17T01:49:42.529Z,0.05
2022-12-17T01:50:42.434Z,0.06
2022-12-17T01:51:42.634Z,0.02
2022-12-17T01:52:43.572Z,0.13
2022-12-17T01:53:44.991Z,-0.02
2022-12-17T01:54:44.607Z,0.05
2022-12-17T01:55:44.953Z,-0.07
2022-12-17T01:56:45.725Z,-0.07
2022-12-17T01:57:45.759Z,-0.13
2022-12-17T01:58:47.081Z,-0.13
2022-12-17T01:59:48.278Z,-0.18
2022-12-17T02:00:48.720Z,-0.12
2022-12-17T02:01:49.870Z,-0.2
2022-12-17T02:02:49.627Z,-0.28
2022-12-17T02:03:50.183Z,-0.21
2022-12-17T02:04:50.807Z,-0.23
2022-12-17T02:05:51.290Z,-0.23
2022-12-17T02:06:51.693Z,-0.23
2022-12-17T02:07:52.574Z,-0.24
2022-12-17T02:08:52.511Z,-0.18
2022-12-17T02:09:53.421Z,-0.18
2022-12-17T02:10:56.959Z,-0.21
2022-12-17T02:11:53.897Z,-0.21
2022-12-17T02:12:54.142Z,-0.27
2022-12-17T02:13:54.346Z,-0.21
2022-12-17T02:14:56.852Z,-0.2
2022-12-17T02:15:55.742Z,-0.23
2022-12-17T02:16:55.911Z,-0.26
2022-12-17T02:17:57.143Z,-0.28
2022-12-17T02:18:57.346Z,-0.26
2022-12-17T02:19:58.341Z,-0.27
2022-12-17T02:20:59.255Z,-0.31
2022-12-17T02:21:59.169Z,-0.27
2022-12-17T02:23:00.521Z,-0.27
2022-12-17T02:24:02.595Z,-0.26
2022-12-17T02:25:01.522Z,-0.26
2022-12-17T02:26:01.727Z,-0.23
2022-12-17T02:27:02.166Z,-0.23
2022-12-17T02:28:02.702Z,-0.27
2022-12-17T02:29:02.887Z,-0.3
2022-12-17T02:30:03.096Z,-0.12
2022-12-17T02:31:04.285Z,-0.1
2022-12-17T02:32:05.337Z,-0.15
2022-12-17T02:33:06.064Z,-0.15
2022-12-17T02:34:07.268Z,-0.15
2022-12-17T02:35:06.884Z,-0.15
2022-12-17T02:36:07.774Z,-0.15
2022-12-17T02:37:07.787Z,-0.12
2022-12-17T02:38:09.003Z,-0.09
2022-12-17T02:39:10.366Z,-0.06
2022-12-17T02:40:10.360Z,-0.02
2022-12-17T02:41:11.723Z,-0.12
2022-12-17T02:42:12.779Z,-0.13
2022-12-17T02:43:13.268Z,-0.12
2022-12-17T02:44:12.910Z,-0.17
2022-12-17T02:45:13.815Z,-0.1
2022-12-17T02:46:14.998Z,-0.1
2022-12-17T02:47:15.167Z,-0.15
2022-12-17T02:48:15.783Z,-0.1
2022-12-17T02:49:16.965Z,-0.12
2022-12-17T02:50:17.157Z,-0.06
2022-12-17T02:51:17.790Z,-0.2
2022-12-17T02:52:18.276Z,-0.1
2022-12-17T02:53:19.042Z,-0.09
2022-12-17T02:54:19.640Z,-0.1
2022-12-17T02:55:19.843Z,-0.06
2022-12-17T02:56:20.401Z,-0.17
2022-12-17T02:57:21.023Z,-0.09
2022-12-17T02:58:21.526Z,-0.06
2022-12-17T02:59:21.711Z,-0.02
2022-12-17T03:00:22.199Z,0.01
2022-12-17T03:01:22.928Z,-0.02
2022-12-17T03:02:24.166Z,-0.03
2022-12-17T03:03:23.784Z,0.01
2022-12-17T03:04:24.493Z,-0.05
2022-12-17T03:05:49.567Z,0
2022-12-17T03:06:25.484Z,-0.06
2022-12-17T03:07:25.029Z,-0.05
2022-12-17T03:08:26.529Z,-0.06
2022-12-17T03:09:26.864Z,0.01
2022-12-17T03:10:27.798Z,-0.1
2022-12-17T03:11:28.304Z,-0.03
2022-12-17T03:12:28.547Z,-0.09
2022-12-17T03:13:28.802Z,-0.15
2022-12-17T03:14:29.850Z,-0.06
2022-12-17T03:15:29.464Z,-0.31
2022-12-17T03:16:38.135Z,-0.2
2022-12-17T03:17:30.796Z,-0.17
2022-12-17T03:18:31.678Z,-0.21
2022-12-17T03:19:32.594Z,-0.26
2022-12-17T03:20:33.209Z,-0.23
2022-12-17T03:21:33.692Z,-0.28
2022-12-17T03:22:33.600Z,-0.26
2022-12-17T03:23:35.103Z,-0.27
2022-12-17T03:24:34.823Z,-0.28
2022-12-17T03:25:34.739Z,-0.38
2022-12-17T03:26:35.968Z,-0.42
2022-12-17T03:27:36.408Z,-0.42
2022-12-17T03:28:37.744Z,-0.33
2022-12-17T03:29:38.356Z,-0.39
2022-12-17T03:30:49.450Z,-0.33
2022-12-17T03:31:40.191Z,-0.39
2022-12-17T03:32:40.451Z,-0.38
2022-12-17T03:33:41.445Z,-0.28
2022-12-17T03:34:40.782Z,-0.27
2022-12-17T03:35:41.687Z,-0.28
2022-12-17T03:36:42.572Z,-0.24
2022-12-17T03:37:43.303Z,-0.28
2022-12-17T03:38:43.816Z,-0.24
2022-12-17T03:39:44.463Z,-0.21
2022-12-17T03:40:45.109Z,-0.17
2022-12-17T03:41:46.388Z,-0.2
2022-12-17T03:42:46.701Z,-0.23
2022-12-17T03:43:47.008Z,-0.24
2022-12-17T03:44:46.914Z,-0.2
2022-12-17T03:45:48.298Z,-0.24
2022-12-17T03:46:48.113Z,-0.2
2022-12-17T03:47:48.262Z,-0.26
2022-12-17T03:48:49.627Z,-0.21
2022-12-17T03:49:50.112Z,-0.09
2022-12-17T03:50:50.995Z,-0.23
2022-12-17T03:51:51.897Z,-0.09
2022-12-17T03:52:51.819Z,-0.09
2022-12-17T03:53:52.748Z,-0.13
2022-12-17T03:54:52.976Z,-0.09
2022-12-17T03:55:54.179Z,-0.03
2022-12-17T03:56:54.371Z,-0.13
2022-12-17T03:57:55.019Z,0.01
2022-12-17T03:58:54.956Z,-0.1
2022-12-17T03:59:55.864Z,-0.05
2022-12-17T04:00:56.186Z,0.02
2022-12-17T04:01:58.119Z,-0.13
2022-12-17T04:02:59.316Z,0
2022-12-17T04:03:58.736Z,0.01
2022-12-17T04:04:59.646Z,0
2022-12-17T04:06:00.103Z,-0.06
2022-12-17T04:07:01.029Z,-0.1
2022-12-17T04:08:01.189Z,-0.09
2022-12-17T04:09:02.398Z,-0.07
2022-12-17T04:10:03.293Z,-0.02
2022-12-17T04:11:04.204Z,-0.05
2022-12-17T04:12:04.127Z,0.05
2022-12-17T04:13:04.776Z,-0.03
2022-12-17T04:14:05.309Z,-0.06
2022-12-17T04:15:05.513Z,-0.07
2022-12-17T04:16:06.278Z,-0.05
2022-12-17T04:17:05.775Z,-0.03
2022-12-17T04:18:06.767Z,0.05
2022-12-17T04:19:06.683Z,0.02
2022-12-17T04:20:06.996Z,0.05
2022-12-17T04:21:07.910Z,0.02
2022-12-17T04:22:07.840Z,0.02
2022-12-17T04:23:09.040Z,0.08
2022-12-17T04:24:09.059Z,0.06
2022-12-17T04:25:09.974Z,-0.06
2022-12-17T04:26:10.606Z,-0.06
2022-12-17T04:27:10.812Z,-0.09
2022-12-17T04:28:10.963Z,0
2022-12-17T04:29:12.493Z,0.01
2022-12-17T04:30:12.970Z,0.01
2022-12-17T04:31:13.370Z,-0.05
2022-12-17T04:32:13.710Z,0.05
2022-12-17T04:33:14.188Z,0.06
2022-12-17T04:34:14.390Z,0
2022-12-17T04:35:15.015Z,0.09
2022-12-17T04:36:15.923Z,0.06
2022-12-17T04:37:17.105Z,-0.03
2022-12-17T04:38:17.124Z,0.05
2022-12-17T04:39:18.035Z,-0.05
2022-12-17T04:40:19.224Z,0.06
2022-12-17T04:41:19.430Z,0.06
2022-12-17T04:42:19.357Z,0.06
2022-12-17T04:43:20.349Z,0.02
2022-12-17T04:44:20.560Z,0.05
2022-12-17T04:45:21.475Z,-0.03
2022-12-17T04:46:22.655Z,0.01
2022-12-17T04:47:22.807Z,0
2022-12-17T04:48:23.234Z,-0.03
2022-12-17T04:49:23.568Z,-0.09
2022-12-17T04:50:24.203Z,-0.03
2022-12-17T04:51:25.407Z,-0.09
2022-12-17T04:52:26.017Z,-0.03
2022-12-17T04:53:26.906Z,-0.07
2022-12-17T04:54:27.861Z,0.08
2022-12-17T04:55:29.063Z,-0.07
2022-12-17T04:56:30.015Z,0.05
2022-12-17T04:57:30.675Z,-0.07
2022-12-17T04:58:30.583Z,0
2022-12-17T04:59:31.513Z,0.06
2022-12-17T05:00:33.006Z,0.05
2022-12-17T05:01:33.471Z,-0.06
2022-12-17T05:02:42.429Z,-0.05
2022-12-17T05:03:35.796Z,-0.03
2022-12-17T05:04:35.477Z,0.05
2022-12-17T05:05:35.792Z,0.09
2022-12-17T05:06:36.997Z,-0.06
2022-12-17T05:07:37.629Z,0.09
2022-12-17T05:08:45.031Z,0.02
2022-12-17T05:09:39.062Z,-0.02
2022-12-17T05:10:39.679Z,0.09
2022-12-17T05:11:40.296Z,0.06
2022-12-17T05:12:41.505Z,-0.03
2022-12-17T05:13:42.013Z,0
2022-12-17T05:14:42.238Z,-0.03
2022-12-17T05:15:44.377Z,0
2022-12-17T05:16:43.242Z,-0.09
2022-12-17T05:17:42.853Z,-0.05
2022-12-17T05:18:43.295Z,-0.05
2022-12-17T05:19:44.222Z,-0.18
2022-12-17T05:20:45.149Z,-0.12
2022-12-17T05:21:46.061Z,-0.15
2022-12-17T05:22:46.656Z,-0.09
2022-12-17T05:23:46.304Z,-0.06
2022-12-17T05:24:47.953Z,-0.1
2022-12-17T05:25:47.847Z,0
2022-12-17T05:26:48.751Z,-0.02
2022-12-17T05:27:49.974Z,-0.07
2022-12-17T05:28:50.406Z,0
2022-12-17T05:29:51.990Z,-0.13
2022-12-17T05:30:52.616Z,0.01
2022-12-17T05:31:52.775Z,-0.02
2022-12-17T05:32:52.963Z,-0.12
2022-12-17T05:33:53.575Z,-0.06
2022-12-17T05:34:54.774Z,-0.24
2022-12-17T05:35:54.757Z,-0.18
2022-12-17T05:36:55.945Z,-0.18
2022-12-17T05:37:56.558Z,-0.2
2022-12-17T05:38:56.967Z,-0.28
2022-12-17T05:39:57.683Z,-0.15
2022-12-17T05:40:58.644Z,-0.21
2022-12-17T05:41:58.986Z,-0.18
2022-12-17T05:42:59.623Z,-0.18
2022-12-17T05:44:00.566Z,-0.26
2022-12-17T05:45:01.105Z,-0.23
2022-12-17T05:46:01.851Z,-0.26
2022-12-17T05:47:02.412Z,-0.26
2022-12-17T05:48:02.333Z,-0.26
2022-12-17T05:49:02.746Z,-0.26
2022-12-17T05:50:03.655Z,-0.28
2022-12-17T05:51:04.561Z,-0.23
2022-12-17T05:52:05.048Z,-0.23
2022-12-17T05:53:05.234Z,-0.17
2022-12-17T05:54:05.144Z,-0.2
2022-12-17T05:55:06.095Z,-0.18
2022-12-17T05:56:06.315Z,-0.27
2022-12-17T05:57:06.521Z,-0.28
2022-12-17T05:58:07.713Z,-0.28
2022-12-17T05:59:08.033Z,-0.26
2022-12-17T06:00:08.237Z,-0.26
2022-12-17T06:01:09.131Z,-0.3
2022-12-17T06:02:09.357Z,-0.31
2022-12-17T06:03:10.491Z,-0.38
2022-12-17T06:04:10.375Z,-0.36
2022-12-17T06:05:11.423Z,-0.48
2022-12-17T06:06:11.050Z,-0.48
2022-12-17T06:07:11.671Z,-0.38
2022-12-17T06:08:12.871Z,-0.38
2022-12-17T06:09:13.850Z,-0.49
2022-12-17T06:10:14.572Z,-0.48
2022-12-17T06:11:14.773Z,-0.48
2022-12-17T06:12:15.677Z,-0.45
2022-12-17T06:13:16.309Z,-0.42
2022-12-17T06:14:16.563Z,-0.41
2022-12-17T06:15:16.794Z,-0.42
2022-12-17T06:16:17.647Z,-0.39
2022-12-17T06:17:18.028Z,-0.42
2022-12-17T06:18:22.657Z,-0.39
2022-12-17T06:19:19.636Z,-0.36
2022-12-17T06:20:20.527Z,-0.44
2022-12-17T06:21:20.412Z,-0.42
2022-12-17T06:22:21.324Z,-0.48
2022-12-17T06:23:21.938Z,-0.44
2022-12-17T06:24:22.141Z,-0.44
2022-12-17T06:25:23.380Z,-0.51
2022-12-17T06:26:24.008Z,-0.49
2022-12-17T06:27:24.626Z,-0.59
2022-12-17T06:28:25.845Z,-0.64
2022-12-17T06:29:25.998Z,-0.56
2022-12-17T06:30:26.930Z,-0.51
2022-12-17T06:31:28.051Z,-0.51
2022-12-17T06:32:28.878Z,-0.49
2022-12-17T06:33:29.367Z,-0.49
2022-12-17T06:34:29.854Z,-0.46
2022-12-17T06:35:30.465Z,-0.54
2022-12-17T06:36:31.803Z,-0.44
2022-12-17T06:37:32.713Z,-0.51
2022-12-17T06:38:33.339Z,-0.51
2022-12-17T06:39:34.371Z,-0.46
2022-12-17T06:40:34.858Z,-0.51
2022-12-17T06:41:35.188Z,-0.41
2022-12-17T06:42:36.097Z,-0.45
2022-12-17T06:43:37.119Z,-0.48
2022-12-17T06:44:37.180Z,-0.41
2022-12-17T06:45:37.486Z,-0.39
2022-12-17T06:46:38.603Z,-0.44
2022-12-17T06:47:38.880Z,-0.39
2022-12-17T06:48:39.926Z,-0.46
2022-12-17T06:49:40.647Z,-0.39
2022-12-17T06:50:41.723Z,-0.53
2022-12-17T06:51:42.329Z,-0.46
2022-12-17T06:52:42.849Z,-0.49
2022-12-17T06:53:43.594Z,-0.51
2022-12-17T06:54:43.515Z,-0.44
2022-12-17T06:55:44.440Z,-0.45
2022-12-17T06:56:44.776Z,-0.53
2022-12-17T06:57:51.165Z,-0.48
2022-12-17T06:58:46.666Z,-0.53
2022-12-17T06:59:47.715Z,-0.53
2022-12-17T07:00:48.175Z,-0.57
2022-12-17T07:01:48.839Z,-0.6
2022-12-17T07:02:49.800Z,-0.59
2022-12-17T07:03:49.384Z,-0.63
2022-12-17T07:04:49.177Z,-0.59
2022-12-17T07:05:50.084Z,-0.69
2022-12-17T07:06:50.011Z,-0.63
2022-12-17T07:07:51.097Z,-0.74
2022-12-17T07:08:52.833Z,-0.67
2022-12-17T07:09:52.584Z,-0.66
2022-12-17T07:10:52.560Z,-0.67
2022-12-17T07:11:53.079Z,-0.7
2022-12-17T07:12:54.195Z,-0.67
2022-12-17T07:13:54.402Z,-0.77
2022-12-17T07:14:57.230Z,-0.78
2022-12-17T07:15:54.873Z,-0.84
2022-12-17T07:16:55.785Z,-0.81
2022-12-17T07:17:55.674Z,-0.8
2022-12-17T07:18:56.292Z,-0.91
2022-12-17T07:19:57.043Z,-0.72
2022-12-17T07:20:57.966Z,-0.81
2022-12-17T07:21:58.154Z,-0.72
2022-12-17T07:22:58.795Z,-0.75
2022-12-17T07:23:59.291Z,-0.7
2022-12-17T07:24:59.189Z,-0.6
2022-12-17T07:25:59.909Z,-0.64
2022-12-17T07:27:00.398Z,-0.69
2022-12-17T07:28:00.312Z,-0.64
2022-12-17T07:29:01.542Z,-0.7
2022-12-17T07:30:01.403Z,-0.7
2022-12-17T07:31:02.606Z,-0.64
2022-12-17T07:32:03.404Z,-0.67
2022-12-17T07:33:03.787Z,-0.66
2022-12-17T07:34:04.697Z,-0.66
2022-12-17T07:35:05.640Z,-0.64
2022-12-17T07:36:05.567Z,-0.6
2022-12-17T07:37:06.605Z,-0.62
2022-12-17T07:38:07.573Z,-0.63
2022-12-17T07:39:07.476Z,-0.53
2022-12-17T07:40:08.267Z,-0.67
2022-12-17T07:41:09.213Z,-0.57
2022-12-17T07:42:10.119Z,-0.57
2022-12-17T07:43:11.322Z,-0.48
2022-12-17T07:44:12.147Z,-0.53
2022-12-17T07:45:11.939Z,-0.56
2022-12-17T07:46:12.799Z,-0.48
2022-12-17T07:47:12.907Z,-0.51
2022-12-17T07:48:13.246Z,-0.48
2022-12-17T07:49:14.728Z,-0.49
2022-12-17T07:50:15.463Z,-0.53
2022-12-17T07:51:15.883Z,-0.54
2022-12-17T07:52:17.081Z,-0.42
2022-12-17T07:53:18.000Z,-0.44
2022-12-17T07:54:19.185Z,-0.42
2022-12-17T07:55:23.890Z,-0.46
2022-12-17T07:56:20.112Z,-0.48
2022-12-17T07:57:20.749Z,-0.46
2022-12-17T07:58:20.962Z,-0.45
2022-12-17T07:59:21.468Z,-0.42
2022-12-17T08:00:21.984Z,-0.41
2022-12-17T08:01:22.852Z,-0.44
2022-12-17T08:02:23.648Z,-0.28
2022-12-17T08:03:24.264Z,-0.23
2022-12-17T08:04:24.315Z,-0.24
2022-12-17T08:05:24.964Z,-0.24
2022-12-17T08:06:26.154Z,-0.15
2022-12-17T08:07:25.767Z,-0.2
2022-12-17T08:08:26.977Z,-0.23
2022-12-17T08:09:27.460Z,-0.24
2022-12-17T08:10:28.145Z,-0.23
2022-12-17T08:11:28.084Z,-0.23
2022-12-17T08:12:28.997Z,-0.21
2022-12-17T08:13:30.207Z,-0.2
2022-12-17T08:14:30.469Z,-0.17
2022-12-17T08:15:31.693Z,-0.15
2022-12-17T08:16:32.466Z,-0.12
2022-12-17T08:17:32.612Z,-0.2
2022-12-17T08:18:32.853Z,-0.1
2022-12-17T08:19:33.798Z,-0.2
2022-12-17T08:20:34.328Z,-0.24
2022-12-17T08:21:34.926Z,-0.26
2022-12-17T08:22:35.246Z,-0.18
2022-12-17T08:23:36.965Z,-0.13
2022-12-17T08:24:37.105Z,-0.13
2022-12-17T08:25:38.289Z,-0.18
2022-12-17T08:26:47.750Z,0
2022-12-17T08:27:38.498Z,-0.12
2022-12-17T08:28:57.429Z,-0.15
2022-12-17T08:29:40.080Z,-0.1
2022-12-17T08:30:40.191Z,-0.12
2022-12-17T08:31:40.931Z,-0.1
2022-12-17T08:32:41.530Z,-0.06
2022-12-17T08:33:42.800Z,0.01
2022-12-17T08:34:43.121Z,-0.03
2022-12-17T08:35:44.011Z,-0.06
2022-12-17T08:36:44.948Z,0.05
2022-12-17T08:37:45.584Z,-0.06
2022-12-17T08:38:46.477Z,0
2022-12-17T08:39:46.604Z,0.01
2022-12-17T08:40:47.433Z,0
2022-12-17T08:41:56.632Z,-0.07
2022-12-17T08:42:49.529Z,-0.07
2022-12-17T08:43:49.420Z,-0.06
2022-12-17T08:44:50.675Z,-0.13
2022-12-17T08:45:50.882Z,-0.06
2022-12-17T08:46:51.647Z,0
2022-12-17T08:47:52.563Z,-0.09
2022-12-17T08:48:53.012Z,-0.02
2022-12-17T08:49:53.506Z,-0.12
2022-12-17T08:50:53.809Z,-0.06
2022-12-17T08:51:55.000Z,-0.03
2022-12-17T08:52:55.344Z,-0.15
2022-12-17T08:53:56.273Z,0.01
2022-12-17T08:54:57.183Z,0.01
2022-12-17T08:55:57.520Z,0.05
2022-12-17T08:56:58.085Z,-0.03
2022-12-17T08:57:58.402Z,-0.03
2022-12-17T08:59:05.111Z,0
2022-12-17T08:59:59.941Z,-0.13
2022-12-17T09:01:03.432Z,0
2022-12-17T09:02:02.591Z,-0.07
2022-12-17T09:03:02.932Z,-0.13
2022-12-17T09:04:02.545Z,-0.13
2022-12-17T09:05:03.464Z,-0.09
2022-12-17T09:06:03.798Z,-0.15
2022-12-17T09:07:04.727Z,0
2022-12-17T09:08:05.218Z,0
2022-12-17T09:09:06.107Z,0
2022-12-17T09:10:06.728Z,-0.12
2022-12-17T09:11:07.139Z,0
2022-12-17T09:12:08.202Z,0.01
2022-12-17T09:13:11.062Z,-0.02
2022-12-17T09:14:08.979Z,-0.05
2022-12-17T09:15:10.179Z,0.01
2022-12-17T09:16:10.797Z,0.06
2022-12-17T09:17:11.915Z,0.08
2022-12-17T09:18:12.123Z,0.06
2022-12-17T09:19:12.609Z,0.02
2022-12-17T09:20:13.095Z,0.05
2022-12-17T09:21:13.150Z,0.09
2022-12-17T09:22:14.062Z,0.05
2022-12-17T09:23:14.680Z,0.08
2022-12-17T09:24:15.175Z,-0.02
2022-12-17T09:25:16.138Z,-0.03
2022-12-17T09:26:17.133Z,-0.17
2022-12-17T09:27:17.434Z,-0.23
2022-12-17T09:28:18.031Z,-0.1
2022-12-17T09:29:18.364Z,-0.27
2022-12-17T09:30:19.589Z,-0.21
2022-12-17T09:31:19.803Z,-0.18
2022-12-17T09:32:20.350Z,-0.09
2022-12-17T09:33:21.260Z,-0.13
2022-12-17T09:34:21.876Z,-0.03
2022-12-17T09:35:22.507Z,0
2022-12-17T09:36:22.991Z,-0.07
2022-12-17T09:37:23.586Z,-0.1
2022-12-17T09:38:24.498Z,-0.05
2022-12-17T09:39:25.132Z,-0.03
2022-12-17T09:40:26.050Z,0
2022-12-17T09:41:26.470Z,-0.02
2022-12-17T09:42:28.109Z,-0.03
2022-12-17T09:43:28.319Z,-0.12
2022-12-17T09:44:29.165Z,-0.13
2022-12-17T09:45:29.378Z,-0.18
2022-12-17T09:46:30.545Z,-0.1
2022-12-17T09:47:31.030Z,-0.07
2022-12-17T09:48:37.898Z,-0.05
2022-12-17T09:49:32.514Z,-0.09
2022-12-17T09:50:33.715Z,-0.12
2022-12-17T09:51:34.719Z,-0.28
2022-12-17T09:52:35.064Z,-0.24
2022-12-17T09:53:37.516Z,-0.27
2022-12-17T09:54:36.633Z,-0.27
2022-12-17T09:55:37.133Z,-0.35
2022-12-17T09:56:38.049Z,-0.27
2022-12-17T09:57:38.282Z,-0.21
2022-12-17T09:58:38.187Z,-0.23
2022-12-17T09:59:38.671Z,-0.23
2022-12-17T10:00:38.878Z,-0.21
2022-12-17T10:01:39.443Z,-0.27
2022-12-17T10:02:40.140Z,-0.26
2022-12-17T10:03:40.870Z,-0.23
2022-12-17T10:04:39.977Z,-0.35
2022-12-17T10:05:40.329Z,-0.33
2022-12-17T10:06:40.961Z,-0.3
2022-12-17T10:07:42.159Z,-0.26
2022-12-17T10:08:42.021Z,-0.35
2022-12-17T10:09:42.631Z,-0.38
2022-12-17T10:10:43.459Z,-0.33
2022-12-17T10:11:43.885Z,-0.41
2022-12-17T10:12:43.806Z,-0.3
2022-12-17T10:13:45.325Z,-0.26
2022-12-17T10:14:44.656Z,-0.31
2022-12-17T10:15:46.174Z,-0.26
2022-12-17T10:16:47.304Z,-0.27
2022-12-17T10:17:47.557Z,-0.38
2022-12-17T10:18:47.471Z,-0.38
2022-12-17T10:19:48.329Z,-0.41
2022-12-17T10:20:48.960Z,-0.51
2022-12-17T10:21:50.270Z,-0.48
2022-12-17T10:22:50.751Z,-0.38
2022-12-17T10:23:50.944Z,-0.45
2022-12-17T10:24:51.134Z,-0.36
2022-12-17T10:25:51.043Z,-0.38
2022-12-17T10:26:51.244Z,-0.39
2022-12-17T10:27:52.281Z,-0.36
2022-12-17T10:28:52.626Z,-0.42
2022-12-17T10:29:54.760Z,-0.33
2022-12-17T10:30:54.277Z,-0.31
2022-12-17T10:31:54.436Z,-0.23
2022-12-17T10:32:54.376Z,-0.28
2022-12-17T10:33:54.995Z,-0.21
2022-12-17T10:34:55.190Z,-0.15
2022-12-17T10:35:56.002Z,-0.13
2022-12-17T10:36:56.624Z,-0.09
2022-12-17T10:37:57.265Z,-0.03
2022-12-17T10:38:58.899Z,0.05
2022-12-17T10:39:59.517Z,0
2022-12-17T10:40:59.423Z,-0.06
2022-12-17T10:41:59.726Z,0
2022-12-17T10:43:00.228Z,0.08
2022-12-17T10:44:00.425Z,0.08
2022-12-17T10:45:01.621Z,0.13
2022-12-17T10:46:02.727Z,0.23
2022-12-17T10:47:03.074Z,0.23
2022-12-17T10:48:03.316Z,0.26
2022-12-17T10:49:11.774Z,0.33
2022-12-17T10:50:05.307Z,0.26
2022-12-17T10:51:05.707Z,0.29
2022-12-17T10:52:06.403Z,0.3
2022-12-17T10:53:07.040Z,0.3
2022-12-17T10:54:08.233Z,0.33
2022-12-17T10:55:09.136Z,0.37
2022-12-17T10:56:09.754Z,0.48
2022-12-17T10:57:10.369Z,0.42
2022-12-17T10:58:11.704Z,0.4
2022-12-17T10:59:12.048Z,0.34
2022-12-17T11:00:13.238Z,0.31
2022-12-17T11:01:14.217Z,0.44
2022-12-17T11:02:14.950Z,0.4
2022-12-17T11:03:15.098Z,0.3
2022-12-17T11:04:15.486Z,0.34
2022-12-17T11:05:15.402Z,0.45
2022-12-17T11:06:16.594Z,0.42
2022-12-17T11:07:16.487Z,0.4
2022-12-17T11:08:16.827Z,0.39
2022-12-17T11:09:17.716Z,0.47
2022-12-17T11:10:17.901Z,0.39
2022-12-17T11:11:18.386Z,0.47
2022-12-17T11:12:18.650Z,0.44
2022-12-17T11:13:19.121Z,0.52
2022-12-17T11:14:19.328Z,0.3
2022-12-17T11:15:19.243Z,0.44
2022-12-17T11:16:20.511Z,0.26
2022-12-17T11:17:21.063Z,0.29
2022-12-17T11:18:21.578Z,0.31
2022-12-17T11:19:21.501Z,0.33
2022-12-17T11:20:22.139Z,0.27
2022-12-17T11:21:23.046Z,0.23
2022-12-17T11:22:23.670Z,0.16
2022-12-17T11:23:23.875Z,0.19
2022-12-17T11:24:28.678Z,0.19
2022-12-17T11:25:25.569Z,0.2
2022-12-17T11:26:26.209Z,0.19
2022-12-17T11:27:26.706Z,0.3
2022-12-17T11:28:26.932Z,0.31
2022-12-17T11:29:27.560Z,0.44
2022-12-17T11:30:33.638Z,0.29
2022-12-17T11:31:29.233Z,0.34
2022-12-17T11:32:29.139Z,0.39
2022-12-17T11:33:29.467Z,0.31
2022-12-17T11:34:29.603Z,0.26
2022-12-17T11:35:30.572Z,0.19
2022-12-17T11:36:39.812Z,0.16
2022-12-17T11:37:31.727Z,0.13
2022-12-17T11:38:31.636Z,0.12
2022-12-17T11:39:32.024Z,0.2
2022-12-17T11:40:32.507Z,0.3
2022-12-17T11:41:32.420Z,0.31
2022-12-17T11:42:32.824Z,0.3
2022-12-17T11:43:33.038Z,0.29
2022-12-17T11:44:32.939Z,0.29
2022-12-17T11:45:33.127Z,0.27
2022-12-17T11:46:33.942Z,0.27
2022-12-17T11:47:33.792Z,0.27
2022-12-17T11:48:35.846Z,0.36
2022-12-17T11:49:36.026Z,0.34
2022-12-17T11:50:36.521Z,0.27
2022-12-17T11:51:37.428Z,0.3
2022-12-17T11:52:37.181Z,0.23
2022-12-17T11:53:37.802Z,0.2
2022-12-17T11:54:37.755Z,0.18
2022-12-17T11:55:37.953Z,0.23
2022-12-17T11:56:38.578Z,0.18
2022-12-17T11:57:39.478Z,0.18
2022-12-17T11:58:41.002Z,0.11
2022-12-17T11:59:40.319Z,0.18
2022-12-17T12:00:40.823Z,0.24
2022-12-17T12:01:42.033Z,0.23
2022-12-17T12:02:42.785Z,0.2
2022-12-17T12:03:43.818Z,0.23
2022-12-17T12:04:44.768Z,0.19
2022-12-17T12:05:45.260Z,0.19
2022-12-17T12:06:46.187Z,0.26
2022-12-17T12:07:46.824Z,0.26
2022-12-17T12:08:47.146Z,0.3
2022-12-17T12:09:48.355Z,0.45
2022-12-17T12:10:48.847Z,0.49
2022-12-17T12:11:49.343Z,0.47
2022-12-17T12:12:49.757Z,0.44
2022-12-17T12:13:50.977Z,0.45
2022-12-17T12:14:51.168Z,0.36
2022-12-17T12:15:52.225Z,0.31
2022-12-17T12:16:53.236Z,0.3
2022-12-17T12:17:52.662Z,0.23
2022-12-17T12:18:52.909Z,0.23
2022-12-17T12:19:54.090Z,0.15
2022-12-17T12:20:55.001Z,0.12
2022-12-17T12:21:57.201Z,0.2
2022-12-17T12:22:56.211Z,0.26
2022-12-17T12:23:56.576Z,0.27
2022-12-17T12:24:57.472Z,0.3
2022-12-17T12:25:58.383Z,0.29
2022-12-17T12:26:57.999Z,0.27
2022-12-17T12:27:58.636Z,0.4
2022-12-17T12:28:59.905Z,0.48
2022-12-17T12:30:00.114Z,0.48
2022-12-17T12:31:00.408Z,0.51
2022-12-17T12:32:01.295Z,0.51
2022-12-17T12:33:09.933Z,0.63
2022-12-17T12:34:02.991Z,0.55
2022-12-17T12:35:02.901Z,0.56
2022-12-17T12:36:03.807Z,0.51
2022-12-17T12:37:04.289Z,0.42
2022-12-17T12:38:04.180Z,0.44
2022-12-17T12:39:05.376Z,0.4
2022-12-17T12:40:05.991Z,0.33
2022-12-17T12:41:06.315Z,0.26
2022-12-17T12:42:07.223Z,0.16
2022-12-17T12:43:07.619Z,0.09
2022-12-17T12:44:07.562Z,0.15
2022-12-17T12:45:07.903Z,0.12
2022-12-17T12:46:08.843Z,0.08
2022-12-17T12:47:09.000Z,0.15
2022-12-17T12:48:09.657Z,0.19
2022-12-17T12:49:10.844Z,0.13
2022-12-17T12:50:11.108Z,0.26
2022-12-17T12:51:12.026Z,0.26
2022-12-17T12:52:12.005Z,0.29
2022-12-17T12:53:13.567Z,0.24
2022-12-17T12:54:14.510Z,0.3
2022-12-17T12:55:14.436Z,0.26
2022-12-17T12:56:15.045Z,0.3
2022-12-17T12:57:16.234Z,0.45
2022-12-17T12:58:16.668Z,0.4
2022-12-17T12:59:17.888Z,0.44
2022-12-17T13:00:18.512Z,0.51
2022-12-17T13:01:19.578Z,0.4
2022-12-17T13:02:21.054Z,0.34
2022-12-17T13:03:31.212Z,0.31
2022-12-17T13:04:21.816Z,0.3
2022-12-17T13:05:22.731Z,0.31
2022-12-17T13:06:23.238Z,0.31
2022-12-17T13:07:23.154Z,0.31
2022-12-17T13:08:24.053Z,0.23
2022-12-17T13:09:34.068Z,0.18
2022-12-17T13:10:25.347Z,0.16
2022-12-17T13:11:25.389Z,0.13
2022-12-17T13:12:26.278Z,0.11
2022-12-17T13:13:26.833Z,0.08
2022-12-17T13:14:27.187Z,0.11